sensor_id;sensor_type;location;lat;lon;timestamp;P1;durP1;ratioP1;P2;durP2;ratioP2
19621;SDS011;9958;33.196;-97.114;2023-07-24T00:01:08;4.90;;;4.47;;
19621;SDS011;9958;33.196;-97.114;2023-07-24T00:03:36;5.68;;;4.80;;
19621;SDS011;9958;33.196;-97.114;2023-07-24T00:06:04;5.10;;;4.60;;
19621;SDS011;9958;33.196;-97.114;2023-07-24T00:08:32;4.90;;;3.90;;
19621;SDS011;9958;33.196;-97.114;2023-07-24T00:11:00;5.40;;;4.90;;
19621;SDS011;9958;33.196;-97.114;2023-07-24T00:13:28;5.72;;;4.63;;
19621;SDS011;9958;33.196;-97.114;2023-07-24T00:15:56;5.28;;;4.65;;
19621;SDS011;9958;33.196;-97.114;2023-07-24T00:18:24;5.13;;;4.53;;
19621;SDS011;9958;33.196;-97.114;2023-07-24T00:20:51;5.75;;;4.78;;
19621;SDS011;9958;33.196;-97.114;2023-07-24T00:23:19;8.25;;;4.60;;
19621;SDS011;9958;33.196;-97.114;2023-07-24T00:25:48;6.93;;;4.90;;
19621;SDS011;9958;33.196;-97.114;2023-07-24T00:28:15;6.10;;;4.40;;
19621;SDS011;9958;33.196;-97.114;2023-07-24T00:30:43;4.95;;;4.28;;
19621;SDS011;9958;33.196;-97.114;2023-07-24T00:33:10;5.60;;;4.40;;
19621;SDS011;9958;33.196;-97.114;2023-07-24T00:35:38;5.18;;;4.15;;
19621;SDS011;9958;33.196;-97.114;2023-07-24T00:38:06;4.85;;;4.30;;
19621;SDS011;9958;33.196;-97.114;2023-07-24T00:40:33;6.65;;;5.15;;
19621;SDS011;9958;33.196;-97.114;2023-07-24T00:43:02;5.50;;;4.95;;
19621;SDS011;9958;33.196;-97.114;2023-07-24T00:45:29;4.78;;;4.30;;
19621;SDS011;9958;33.196;-97.114;2023-07-24T00:47:57;4.50;;;4.10;;
19621;SDS011;9958;33.196;-97.114;2023-07-24T00:50:26;5.55;;;4.20;;
19621;SDS011;9958;33.196;-97.114;2023-07-24T00:52:55;5.72;;;4.45;;
19621;SDS011;9958;33.196;-97.114;2023-07-24T00:55:23;5.88;;;5.07;;
19621;SDS011;9958;33.196;-97.114;2023-07-24T00:57:51;5.18;;;4.68;;
19621;SDS011;9958;33.196;-97.114;2023-07-24T01:00:20;5.03;;;4.28;;
19621;SDS011;9958;33.196;-97.114;2023-07-24T01:02:48;7.28;;;4.70;;
19621;SDS011;9958;33.196;-97.114;2023-07-24T01:05:16;4.85;;;4.32;;
19621;SDS011;9958;33.196;-97.114;2023-07-24T01:07:44;4.82;;;4.35;;
19621;SDS011;9958;33.196;-97.114;2023-07-24T01:10:11;6.22;;;4.82;;
19621;SDS011;9958;33.196;-97.114;2023-07-24T01:12:39;4.70;;;4.18;;
19621;SDS011;9958;33.196;-97.114;2023-07-24T01:15:16;6.68;;;4.32;;
19621;SDS011;9958;33.196;-97.114;2023-07-24T01:17:53;7.95;;;4.80;;
19621;SDS011;9958;33.196;-97.114;2023-07-24T01:20:26;4.72;;;4.20;;
19621;SDS011;9958;33.196;-97.114;2023-07-24T01:23:00;8.00;;;5.07;;
19621;SDS011;9958;33.196;-97.114;2023-07-24T01:25:46;4.85;;;4.32;;
19621;SDS011;9958;33.196;-97.114;2023-07-24T01:28:24;6.78;;;4.93;;
19621;SDS011;9958;33.196;-97.114;2023-07-24T01:30:51;8.45;;;4.80;;
19621;SDS011;9958;33.196;-97.114;2023-07-24T01:33:19;5.03;;;4.20;;
19621;SDS011;9958;33.196;-97.114;2023-07-24T01:35:48;4.97;;;4.35;;
19621;SDS011;9958;33.196;-97.114;2023-07-24T01:38:17;6.88;;;4.25;;
19621;SDS011;9958;33.196;-97.114;2023-07-24T01:40:46;5.68;;;4.32;;
19621;SDS011;9958;33.196;-97.114;2023-07-24T01:43:15;5.35;;;4.13;;
19621;SDS011;9958;33.196;-97.114;2023-07-24T01:45:42;4.72;;;4.20;;
19621;SDS011;9958;33.196;-97.114;2023-07-24T01:48:10;4.72;;;4.22;;
19621;SDS011;9958;33.196;-97.114;2023-07-24T01:50:38;6.65;;;4.32;;
19621;SDS011;9958;33.196;-97.114;2023-07-24T01:53:05;4.70;;;4.30;;
19621;SDS011;9958;33.196;-97.114;2023-07-24T01:55:33;7.57;;;5.00;;
19621;SDS011;9958;33.196;-97.114;2023-07-24T01:58:01;5.47;;;4.43;;
19621;SDS011;9958;33.196;-97.114;2023-07-24T02:00:29;4.95;;;4.43;;
19621;SDS011;9958;33.196;-97.114;2023-07-24T02:02:56;5.35;;;4.78;;
19621;SDS011;9958;33.196;-97.114;2023-07-24T02:05:25;5.30;;;4.13;;
19621;SDS011;9958;33.196;-97.114;2023-07-24T02:07:53;4.90;;;4.38;;
19621;SDS011;9958;33.196;-97.114;2023-07-24T02:10:20;4.78;;;4.28;;
19621;SDS011;9958;33.196;-97.114;2023-07-24T02:12:48;5.32;;;4.22;;
19621;SDS011;9958;33.196;-97.114;2023-07-24T02:15:16;5.20;;;4.43;;
19621;SDS011;9958;33.196;-97.114;2023-07-24T02:17:44;5.47;;;4.35;;
19621;SDS011;9958;33.196;-97.114;2023-07-24T02:20:12;4.38;;;3.97;;
19621;SDS011;9958;33.196;-97.114;2023-07-24T02:22:39;5.32;;;4.25;;
19621;SDS011;9958;33.196;-97.114;2023-07-24T02:25:07;5.63;;;4.32;;
19621;SDS011;9958;33.196;-97.114;2023-07-24T02:27:35;5.28;;;4.45;;
19621;SDS011;9958;33.196;-97.114;2023-07-24T02:30:03;5.63;;;4.40;;
19621;SDS011;9958;33.196;-97.114;2023-07-24T02:32:32;6.10;;;4.57;;
19621;SDS011;9958;33.196;-97.114;2023-07-24T02:34:59;6.07;;;4.50;;
19621;SDS011;9958;33.196;-97.114;2023-07-24T02:37:27;5.63;;;4.45;;
19621;SDS011;9958;33.196;-97.114;2023-07-24T02:39:55;5.18;;;4.68;;
19621;SDS011;9958;33.196;-97.114;2023-07-24T02:42:22;5.22;;;4.60;;
19621;SDS011;9958;33.196;-97.114;2023-07-24T02:44:50;7.05;;;4.78;;
19621;SDS011;9958;33.196;-97.114;2023-07-24T02:47:18;6.07;;;4.80;;
19621;SDS011;9958;33.196;-97.114;2023-07-24T02:49:47;6.30;;;4.93;;
19621;SDS011;9958;33.196;-97.114;2023-07-24T02:52:14;6.57;;;5.50;;
19621;SDS011;9958;33.196;-97.114;2023-07-24T02:54:42;6.10;;;4.90;;
19621;SDS011;9958;33.196;-97.114;2023-07-24T02:57:10;5.53;;;4.68;;
19621;SDS011;9958;33.196;-97.114;2023-07-24T02:59:37;7.28;;;4.95;;
19621;SDS011;9958;33.196;-97.114;2023-07-24T03:02:05;5.32;;;4.82;;
19621;SDS011;9958;33.196;-97.114;2023-07-24T03:04:32;6.25;;;4.88;;
19621;SDS011;9958;33.196;-97.114;2023-07-24T03:07:01;5.68;;;5.07;;
19621;SDS011;9958;33.196;-97.114;2023-07-24T03:09:29;5.88;;;4.72;;
19621;SDS011;9958;33.196;-97.114;2023-07-24T03:11:56;6.18;;;5.53;;
19621;SDS011;9958;33.196;-97.114;2023-07-24T03:14:24;6.28;;;4.93;;
19621;SDS011;9958;33.196;-97.114;2023-07-24T03:16:51;5.50;;;4.80;;
19621;SDS011;9958;33.196;-97.114;2023-07-24T03:19:19;6.50;;;4.90;;
19621;SDS011;9958;33.196;-97.114;2023-07-24T03:21:47;5.55;;;4.85;;
19621;SDS011;9958;33.196;-97.114;2023-07-24T03:24:15;5.60;;;4.75;;
19621;SDS011;9958;33.196;-97.114;2023-07-24T03:26:43;6.25;;;5.07;;
19621;SDS011;9958;33.196;-97.114;2023-07-24T03:29:10;6.03;;;5.05;;
19621;SDS011;9958;33.196;-97.114;2023-07-24T03:31:38;6.85;;;4.75;;
19621;SDS011;9958;33.196;-97.114;2023-07-24T03:34:06;7.00;;;5.00;;
19621;SDS011;9958;33.196;-97.114;2023-07-24T03:36:33;5.32;;;4.78;;
19621;SDS011;9958;33.196;-97.114;2023-07-24T03:39:02;8.55;;;5.22;;
19621;SDS011;9958;33.196;-97.114;2023-07-24T03:41:30;5.03;;;4.53;;
19621;SDS011;9958;33.196;-97.114;2023-07-24T03:43:58;6.25;;;4.63;;
19621;SDS011;9958;33.196;-97.114;2023-07-24T03:46:26;6.28;;;4.90;;
19621;SDS011;9958;33.196;-97.114;2023-07-24T03:48:53;6.88;;;5.05;;
19621;SDS011;9958;33.196;-97.114;2023-07-24T03:51:21;5.82;;;5.22;;
19621;SDS011;9958;33.196;-97.114;2023-07-24T03:53:49;6.60;;;4.97;;
19621;SDS011;9958;33.196;-97.114;2023-07-24T03:56:16;5.85;;;4.95;;
19621;SDS011;9958;33.196;-97.114;2023-07-24T03:58:45;8.20;;;4.82;;
19621;SDS011;9958;33.196;-97.114;2023-07-24T04:01:13;5.50;;;4.57;;
19621;SDS011;9958;33.196;-97.114;2023-07-24T04:03:40;5.53;;;4.95;;
19621;SDS011;9958;33.196;-97.114;2023-07-24T04:06:09;6.22;;;5.30;;
19621;SDS011;9958;33.196;-97.114;2023-07-24T04:08:36;5.68;;;5.07;;
19621;SDS011;9958;33.196;-97.114;2023-07-24T04:11:04;6.03;;;5.43;;
19621;SDS011;9958;33.196;-97.114;2023-07-24T04:13:31;6.10;;;4.38;;
19621;SDS011;9958;33.196;-97.114;2023-07-24T04:16:00;5.50;;;4.63;;
19621;SDS011;9958;33.196;-97.114;2023-07-24T04:18:27;5.70;;;4.70;;
19621;SDS011;9958;33.196;-97.114;2023-07-24T04:20:55;5.75;;;4.57;;
19621;SDS011;9958;33.196;-97.114;2023-07-24T04:23:23;5.68;;;4.63;;
19621;SDS011;9958;33.196;-97.114;2023-07-24T04:25:50;6.45;;;4.80;;
19621;SDS011;9958;33.196;-97.114;2023-07-24T04:28:18;7.10;;;5.35;;
19621;SDS011;9958;33.196;-97.114;2023-07-24T04:30:46;6.05;;;4.78;;
19621;SDS011;9958;33.196;-97.114;2023-07-24T04:33:14;5.85;;;5.20;;
19621;SDS011;9958;33.196;-97.114;2023-07-24T04:35:42;7.07;;;5.38;;
19621;SDS011;9958;33.196;-97.114;2023-07-24T04:38:09;5.78;;;4.90;;
19621;SDS011;9958;33.196;-97.114;2023-07-24T04:40:37;6.65;;;5.30;;
19621;SDS011;9958;33.196;-97.114;2023-07-24T04:43:04;6.10;;;5.05;;
19621;SDS011;9958;33.196;-97.114;2023-07-24T04:45:32;6.80;;;4.72;;
19621;SDS011;9958;33.196;-97.114;2023-07-24T04:48:00;5.68;;;4.68;;
19621;SDS011;9958;33.196;-97.114;2023-07-24T04:50:28;8.20;;;5.28;;
19621;SDS011;9958;33.196;-97.114;2023-07-24T04:52:56;6.57;;;4.82;;
19621;SDS011;9958;33.196;-97.114;2023-07-24T04:55:23;6.75;;;5.20;;
19621;SDS011;9958;33.196;-97.114;2023-07-24T04:57:51;5.18;;;4.57;;
19621;SDS011;9958;33.196;-97.114;2023-07-24T05:00:19;5.38;;;4.85;;
19621;SDS011;9958;33.196;-97.114;2023-07-24T05:02:46;6.70;;;4.93;;
19621;SDS011;9958;33.196;-97.114;2023-07-24T05:05:14;7.85;;;4.95;;
19621;SDS011;9958;33.196;-97.114;2023-07-24T05:07:43;7.65;;;5.88;;
19621;SDS011;9958;33.196;-97.114;2023-07-24T05:10:10;5.63;;;4.82;;
19621;SDS011;9958;33.196;-97.114;2023-07-24T05:12:40;5.75;;;5.05;;
19621;SDS011;9958;33.196;-97.114;2023-07-24T05:15:08;8.65;;;5.00;;
19621;SDS011;9958;33.196;-97.114;2023-07-24T05:17:36;5.55;;;4.85;;
19621;SDS011;9958;33.196;-97.114;2023-07-24T05:20:04;6.03;;;4.75;;
19621;SDS011;9958;33.196;-97.114;2023-07-24T05:22:33;7.70;;;5.55;;
19621;SDS011;9958;33.196;-97.114;2023-07-24T05:25:01;5.97;;;5.03;;
19621;SDS011;9958;33.196;-97.114;2023-07-24T05:27:29;5.97;;;4.85;;
19621;SDS011;9958;33.196;-97.114;2023-07-24T05:29:57;6.90;;;4.90;;
19621;SDS011;9958;33.196;-97.114;2023-07-24T05:32:24;7.03;;;5.68;;
19621;SDS011;9958;33.196;-97.114;2023-07-24T05:34:52;5.93;;;4.90;;
19621;SDS011;9958;33.196;-97.114;2023-07-24T05:37:19;6.03;;;5.15;;
19621;SDS011;9958;33.196;-97.114;2023-07-24T05:39:47;6.07;;;5.20;;
19621;SDS011;9958;33.196;-97.114;2023-07-24T05:42:15;5.85;;;4.97;;
19621;SDS011;9958;33.196;-97.114;2023-07-24T05:44:43;5.55;;;4.95;;
19621;SDS011;9958;33.196;-97.114;2023-07-24T05:47:11;6.18;;;5.00;;
19621;SDS011;9958;33.196;-97.114;2023-07-24T05:49:38;6.68;;;5.20;;
19621;SDS011;9958;33.196;-97.114;2023-07-24T05:52:06;6.72;;;5.82;;
19621;SDS011;9958;33.196;-97.114;2023-07-24T05:54:34;6.57;;;5.72;;
19621;SDS011;9958;33.196;-97.114;2023-07-24T05:57:01;8.27;;;5.40;;
19621;SDS011;9958;33.196;-97.114;2023-07-24T05:59:30;7.15;;;5.10;;
19621;SDS011;9958;33.196;-97.114;2023-07-24T06:01:58;6.65;;;5.03;;
19621;SDS011;9958;33.196;-97.114;2023-07-24T06:04:25;7.45;;;5.35;;
19621;SDS011;9958;33.196;-97.114;2023-07-24T06:06:53;7.00;;;5.50;;
19621;SDS011;9958;33.196;-97.114;2023-07-24T06:09:20;7.40;;;5.03;;
19621;SDS011;9958;33.196;-97.114;2023-07-24T06:11:48;6.32;;;5.38;;
19621;SDS011;9958;33.196;-97.114;2023-07-24T06:14:16;7.15;;;5.30;;
19621;SDS011;9958;33.196;-97.114;2023-07-24T06:16:44;8.30;;;5.25;;
19621;SDS011;9958;33.196;-97.114;2023-07-24T06:19:12;6.78;;;5.20;;
19621;SDS011;9958;33.196;-97.114;2023-07-24T06:21:40;6.18;;;5.40;;
19621;SDS011;9958;33.196;-97.114;2023-07-24T06:24:08;6.90;;;5.45;;
19621;SDS011;9958;33.196;-97.114;2023-07-24T06:26:37;7.78;;;5.85;;
19621;SDS011;9958;33.196;-97.114;2023-07-24T06:29:05;7.18;;;5.20;;
19621;SDS011;9958;33.196;-97.114;2023-07-24T06:31:32;8.60;;;6.00;;
19621;SDS011;9958;33.196;-97.114;2023-07-24T06:34:01;6.40;;;5.20;;
19621;SDS011;9958;33.196;-97.114;2023-07-24T06:36:28;6.78;;;5.25;;
19621;SDS011;9958;33.196;-97.114;2023-07-24T06:38:56;10.05;;;5.75;;
19621;SDS011;9958;33.196;-97.114;2023-07-24T06:41:24;7.43;;;5.95;;
19621;SDS011;9958;33.196;-97.114;2023-07-24T06:43:51;6.82;;;5.28;;
19621;SDS011;9958;33.196;-97.114;2023-07-24T06:46:19;7.72;;;5.70;;
19621;SDS011;9958;33.196;-97.114;2023-07-24T06:48:46;5.75;;;5.07;;
19621;SDS011;9958;33.196;-97.114;2023-07-24T06:51:15;7.10;;;5.68;;
19621;SDS011;9958;33.196;-97.114;2023-07-24T06:53:43;8.20;;;5.90;;
19621;SDS011;9958;33.196;-97.114;2023-07-24T06:56:10;9.50;;;6.22;;
19621;SDS011;9958;33.196;-97.114;2023-07-24T06:58:39;7.55;;;5.75;;
19621;SDS011;9958;33.196;-97.114;2023-07-24T07:01:06;10.75;;;5.93;;
19621;SDS011;9958;33.196;-97.114;2023-07-24T07:03:34;7.63;;;5.75;;
19621;SDS011;9958;33.196;-97.114;2023-07-24T07:06:02;8.50;;;5.70;;
19621;SDS011;9958;33.196;-97.114;2023-07-24T07:08:30;8.10;;;6.32;;
19621;SDS011;9958;33.196;-97.114;2023-07-24T07:10:58;7.82;;;5.70;;
19621;SDS011;9958;33.196;-97.114;2023-07-24T07:13:27;6.28;;;5.32;;
19621;SDS011;9958;33.196;-97.114;2023-07-24T07:15:55;6.68;;;5.60;;
19621;SDS011;9958;33.196;-97.114;2023-07-24T07:18:22;8.43;;;6.18;;
19621;SDS011;9958;33.196;-97.114;2023-07-24T07:20:50;7.13;;;5.93;;
19621;SDS011;9958;33.196;-97.114;2023-07-24T07:23:18;6.28;;;5.20;;
19621;SDS011;9958;33.196;-97.114;2023-07-24T07:25:47;8.63;;;5.68;;
19621;SDS011;9958;33.196;-97.114;2023-07-24T07:28:15;6.13;;;5.43;;
19621;SDS011;9958;33.196;-97.114;2023-07-24T07:30:43;6.55;;;5.80;;
19621;SDS011;9958;33.196;-97.114;2023-07-24T07:33:11;5.93;;;5.07;;
19621;SDS011;9958;33.196;-97.114;2023-07-24T07:35:38;6.75;;;5.68;;
19621;SDS011;9958;33.196;-97.114;2023-07-24T07:38:06;6.68;;;5.75;;
19621;SDS011;9958;33.196;-97.114;2023-07-24T07:40:34;8.00;;;5.53;;
19621;SDS011;9958;33.196;-97.114;2023-07-24T07:43:05;9.00;;;5.50;;
19621;SDS011;9958;33.196;-97.114;2023-07-24T07:45:33;9.68;;;6.00;;
19621;SDS011;9958;33.196;-97.114;2023-07-24T07:48:00;10.38;;;6.00;;
19621;SDS011;9958;33.196;-97.114;2023-07-24T07:50:28;6.78;;;5.43;;
19621;SDS011;9958;33.196;-97.114;2023-07-24T07:52:56;7.03;;;5.63;;
19621;SDS011;9958;33.196;-97.114;2023-07-24T07:55:23;9.73;;;6.10;;
19621;SDS011;9958;33.196;-97.114;2023-07-24T07:57:51;9.15;;;5.80;;
19621;SDS011;9958;33.196;-97.114;2023-07-24T08:00:19;6.93;;;5.78;;
19621;SDS011;9958;33.196;-97.114;2023-07-24T08:02:47;10.05;;;5.80;;
19621;SDS011;9958;33.196;-97.114;2023-07-24T08:05:15;6.85;;;5.35;;
19621;SDS011;9958;33.196;-97.114;2023-07-24T08:07:43;6.70;;;5.43;;
19621;SDS011;9958;33.196;-97.114;2023-07-24T08:10:10;7.28;;;5.70;;
19621;SDS011;9958;33.196;-97.114;2023-07-24T08:12:40;8.52;;;5.55;;
19621;SDS011;9958;33.196;-97.114;2023-07-24T08:15:08;7.63;;;5.90;;
19621;SDS011;9958;33.196;-97.114;2023-07-24T08:17:37;7.47;;;5.65;;
19621;SDS011;9958;33.196;-97.114;2023-07-24T08:20:05;7.85;;;5.85;;
19621;SDS011;9958;33.196;-97.114;2023-07-24T08:22:34;7.18;;;5.38;;
19621;SDS011;9958;33.196;-97.114;2023-07-24T08:25:01;7.35;;;5.85;;
19621;SDS011;9958;33.196;-97.114;2023-07-24T08:27:29;7.25;;;5.65;;
19621;SDS011;9958;33.196;-97.114;2023-07-24T08:29:57;6.55;;;5.72;;
19621;SDS011;9958;33.196;-97.114;2023-07-24T08:32:25;8.02;;;5.50;;
19621;SDS011;9958;33.196;-97.114;2023-07-24T08:34:53;9.15;;;5.90;;
19621;SDS011;9958;33.196;-97.114;2023-07-24T08:37:21;7.25;;;5.80;;
19621;SDS011;9958;33.196;-97.114;2023-07-24T08:39:49;6.75;;;5.10;;
19621;SDS011;9958;33.196;-97.114;2023-07-24T08:42:16;8.70;;;6.03;;
19621;SDS011;9958;33.196;-97.114;2023-07-24T08:44:45;6.70;;;5.70;;
19621;SDS011;9958;33.196;-97.114;2023-07-24T08:47:13;6.57;;;5.72;;
19621;SDS011;9958;33.196;-97.114;2023-07-24T08:49:42;9.00;;;5.75;;
19621;SDS011;9958;33.196;-97.114;2023-07-24T08:52:11;7.45;;;5.70;;
19621;SDS011;9958;33.196;-97.114;2023-07-24T08:54:39;8.57;;;5.10;;
19621;SDS011;9958;33.196;-97.114;2023-07-24T08:57:07;5.93;;;5.13;;
19621;SDS011;9958;33.196;-97.114;2023-07-24T08:59:34;7.13;;;5.55;;
19621;SDS011;9958;33.196;-97.114;2023-07-24T09:02:02;7.60;;;5.50;;
19621;SDS011;9958;33.196;-97.114;2023-07-24T09:04:30;9.40;;;5.93;;
19621;SDS011;9958;33.196;-97.114;2023-07-24T09:06:58;8.13;;;5.70;;
19621;SDS011;9958;33.196;-97.114;2023-07-24T09:09:29;6.90;;;5.45;;
19621;SDS011;9958;33.196;-97.114;2023-07-24T09:11:57;6.43;;;5.35;;
19621;SDS011;9958;33.196;-97.114;2023-07-24T09:14:26;9.10;;;5.68;;
19621;SDS011;9958;33.196;-97.114;2023-07-24T09:17:01;7.43;;;5.35;;
19621;SDS011;9958;33.196;-97.114;2023-07-24T09:19:30;6.53;;;5.35;;
19621;SDS011;9958;33.196;-97.114;2023-07-24T09:22:07;8.10;;;5.82;;
19621;SDS011;9958;33.196;-97.114;2023-07-24T09:24:36;6.78;;;5.43;;
19621;SDS011;9958;33.196;-97.114;2023-07-24T09:27:05;7.53;;;5.55;;
19621;SDS011;9958;33.196;-97.114;2023-07-24T09:29:33;7.90;;;5.65;;
19621;SDS011;9958;33.196;-97.114;2023-07-24T09:32:01;7.20;;;5.80;;
19621;SDS011;9958;33.196;-97.114;2023-07-24T09:34:29;7.97;;;5.63;;
19621;SDS011;9958;33.196;-97.114;2023-07-24T09:36:58;8.88;;;5.88;;
19621;SDS011;9958;33.196;-97.114;2023-07-24T09:39:25;8.45;;;6.47;;
19621;SDS011;9958;33.196;-97.114;2023-07-24T09:42:02;7.82;;;5.85;;
19621;SDS011;9958;33.196;-97.114;2023-07-24T09:44:30;8.43;;;5.88;;
19621;SDS011;9958;33.196;-97.114;2023-07-24T09:46:58;6.35;;;5.43;;
19621;SDS011;9958;33.196;-97.114;2023-07-24T09:49:27;6.43;;;5.38;;
19621;SDS011;9958;33.196;-97.114;2023-07-24T09:51:55;7.38;;;5.70;;
19621;SDS011;9958;33.196;-97.114;2023-07-24T09:54:32;7.57;;;5.95;;
19621;SDS011;9958;33.196;-97.114;2023-07-24T09:57:07;8.00;;;5.53;;
19621;SDS011;9958;33.196;-97.114;2023-07-24T09:59:36;9.05;;;5.80;;
19621;SDS011;9958;33.196;-97.114;2023-07-24T10:02:04;7.68;;;5.57;;
19621;SDS011;9958;33.196;-97.114;2023-07-24T10:04:32;8.13;;;6.05;;
19621;SDS011;9958;33.196;-97.114;2023-07-24T10:07:03;7.55;;;5.57;;
19621;SDS011;9958;33.196;-97.114;2023-07-24T10:09:32;7.68;;;6.05;;
19621;SDS011;9958;33.196;-97.114;2023-07-24T10:12:00;8.38;;;6.13;;
19621;SDS011;9958;33.196;-97.114;2023-07-24T10:14:30;7.10;;;5.43;;
19621;SDS011;9958;33.196;-97.114;2023-07-24T10:16:58;7.78;;;6.03;;
19621;SDS011;9958;33.196;-97.114;2023-07-24T10:19:34;8.02;;;5.65;;
19621;SDS011;9958;33.196;-97.114;2023-07-24T10:22:03;7.28;;;6.00;;
19621;SDS011;9958;33.196;-97.114;2023-07-24T10:24:31;7.82;;;5.63;;
19621;SDS011;9958;33.196;-97.114;2023-07-24T10:27:00;7.38;;;5.95;;
19621;SDS011;9958;33.196;-97.114;2023-07-24T10:29:34;6.65;;;5.50;;
19621;SDS011;9958;33.196;-97.114;2023-07-24T10:32:03;8.07;;;6.05;;
19621;SDS011;9958;33.196;-97.114;2023-07-24T10:34:37;9.90;;;5.80;;
19621;SDS011;9958;33.196;-97.114;2023-07-24T10:37:06;10.07;;;6.00;;
19621;SDS011;9958;33.196;-97.114;2023-07-24T10:39:38;8.20;;;5.75;;
19621;SDS011;9958;33.196;-97.114;2023-07-24T10:42:07;7.93;;;5.50;;
19621;SDS011;9958;33.196;-97.114;2023-07-24T10:44:36;10.07;;;6.25;;
19621;SDS011;9958;33.196;-97.114;2023-07-24T10:47:04;9.15;;;6.53;;
19621;SDS011;9958;33.196;-97.114;2023-07-24T10:49:32;11.50;;;6.55;;
19621;SDS011;9958;33.196;-97.114;2023-07-24T10:52:01;7.30;;;6.25;;
19621;SDS011;9958;33.196;-97.114;2023-07-24T10:54:29;7.75;;;5.68;;
19621;SDS011;9958;33.196;-97.114;2023-07-24T10:56:58;9.05;;;6.05;;
19621;SDS011;9958;33.196;-97.114;2023-07-24T11:02:10;7.60;;;5.70;;
19621;SDS011;9958;33.196;-97.114;2023-07-24T11:04:39;7.93;;;6.45;;
19621;SDS011;9958;33.196;-97.114;2023-07-24T11:07:07;7.93;;;5.65;;
19621;SDS011;9958;33.196;-97.114;2023-07-24T11:09:35;8.63;;;6.15;;
19621;SDS011;9958;33.196;-97.114;2023-07-24T11:12:10;9.45;;;6.07;;
19621;SDS011;9958;33.196;-97.114;2023-07-24T11:17:33;9.60;;;5.88;;
19621;SDS011;9958;33.196;-97.114;2023-07-24T11:20:08;8.43;;;6.10;;
19621;SDS011;9958;33.196;-97.114;2023-07-24T11:22:37;8.35;;;6.05;;
19621;SDS011;9958;33.196;-97.114;2023-07-24T11:25:06;8.40;;;6.28;;
19621;SDS011;9958;33.196;-97.114;2023-07-24T11:27:38;7.15;;;5.82;;
19621;SDS011;9958;33.196;-97.114;2023-07-24T11:30:08;9.38;;;6.15;;
19621;SDS011;9958;33.196;-97.114;2023-07-24T11:32:42;9.38;;;6.65;;
19621;SDS011;9958;33.196;-97.114;2023-07-24T11:35:10;7.55;;;6.22;;
19621;SDS011;9958;33.196;-97.114;2023-07-24T11:37:37;9.95;;;6.32;;
19621;SDS011;9958;33.196;-97.114;2023-07-24T11:40:06;7.28;;;5.93;;
19621;SDS011;9958;33.196;-97.114;2023-07-24T11:42:38;8.68;;;5.88;;
19621;SDS011;9958;33.196;-97.114;2023-07-24T11:45:09;10.20;;;6.38;;
19621;SDS011;9958;33.196;-97.114;2023-07-24T11:47:41;6.72;;;6.03;;
19621;SDS011;9958;33.196;-97.114;2023-07-24T11:50:09;7.78;;;6.10;;
19621;SDS011;9958;33.196;-97.114;2023-07-24T11:52:37;6.78;;;5.78;;
19621;SDS011;9958;33.196;-97.114;2023-07-24T11:55:07;9.43;;;6.50;;
19621;SDS011;9958;33.196;-97.114;2023-07-24T11:57:34;9.52;;;6.43;;
19621;SDS011;9958;33.196;-97.114;2023-07-24T12:00:03;7.68;;;5.93;;
19621;SDS011;9958;33.196;-97.114;2023-07-24T12:02:32;9.48;;;6.28;;
19621;SDS011;9958;33.196;-97.114;2023-07-24T12:05:00;8.38;;;6.25;;
19621;SDS011;9958;33.196;-97.114;2023-07-24T12:07:32;9.93;;;6.15;;
19621;SDS011;9958;33.196;-97.114;2023-07-24T12:10:00;7.95;;;5.88;;
19621;SDS011;9958;33.196;-97.114;2023-07-24T12:12:43;11.10;;;6.43;;
19621;SDS011;9958;33.196;-97.114;2023-07-24T12:15:12;9.90;;;5.97;;
19621;SDS011;9958;33.196;-97.114;2023-07-24T12:17:42;8.35;;;6.07;;
19621;SDS011;9958;33.196;-97.114;2023-07-24T12:20:10;8.65;;;6.22;;
19621;SDS011;9958;33.196;-97.114;2023-07-24T12:22:38;7.65;;;6.28;;
19621;SDS011;9958;33.196;-97.114;2023-07-24T12:25:06;9.88;;;6.72;;
19621;SDS011;9958;33.196;-97.114;2023-07-24T12:27:34;10.93;;;6.97;;
19621;SDS011;9958;33.196;-97.114;2023-07-24T12:30:03;8.30;;;6.32;;
19621;SDS011;9958;33.196;-97.114;2023-07-24T12:32:31;16.50;;;7.45;;
19621;SDS011;9958;33.196;-97.114;2023-07-24T12:35:00;11.68;;;6.82;;
19621;SDS011;9958;33.196;-97.114;2023-07-24T12:37:27;10.23;;;7.03;;
19621;SDS011;9958;33.196;-97.114;2023-07-24T12:39:55;9.20;;;6.38;;
19621;SDS011;9958;33.196;-97.114;2023-07-24T12:42:22;9.88;;;5.88;;
19621;SDS011;9958;33.196;-97.114;2023-07-24T12:44:50;7.97;;;6.60;;
19621;SDS011;9958;33.196;-97.114;2023-07-24T12:47:18;10.50;;;6.03;;
19621;SDS011;9958;33.196;-97.114;2023-07-24T12:49:45;10.10;;;6.22;;
19621;SDS011;9958;33.196;-97.114;2023-07-24T12:52:14;7.60;;;5.95;;
19621;SDS011;9958;33.196;-97.114;2023-07-24T12:54:42;8.23;;;6.03;;
19621;SDS011;9958;33.196;-97.114;2023-07-24T12:57:10;8.10;;;6.43;;
19621;SDS011;9958;33.196;-97.114;2023-07-24T12:59:38;7.70;;;5.80;;
19621;SDS011;9958;33.196;-97.114;2023-07-24T13:02:05;7.70;;;6.10;;
19621;SDS011;9958;33.196;-97.114;2023-07-24T13:04:33;7.68;;;6.57;;
19621;SDS011;9958;33.196;-97.114;2023-07-24T13:07:00;9.23;;;6.28;;
19621;SDS011;9958;33.196;-97.114;2023-07-24T13:09:31;8.40;;;5.93;;
19621;SDS011;9958;33.196;-97.114;2023-07-24T13:11:58;7.10;;;5.50;;
19621;SDS011;9958;33.196;-97.114;2023-07-24T13:14:26;9.45;;;6.05;;
19621;SDS011;9958;33.196;-97.114;2023-07-24T13:16:53;9.35;;;6.10;;
19621;SDS011;9958;33.196;-97.114;2023-07-24T13:19:21;7.63;;;6.80;;
19621;SDS011;9958;33.196;-97.114;2023-07-24T13:21:49;6.47;;;5.78;;
19621;SDS011;9958;33.196;-97.114;2023-07-24T13:24:16;7.95;;;6.55;;
19621;SDS011;9958;33.196;-97.114;2023-07-24T13:26:45;6.75;;;6.15;;
19621;SDS011;9958;33.196;-97.114;2023-07-24T13:29:12;7.20;;;6.45;;
19621;SDS011;9958;33.196;-97.114;2023-07-24T13:31:40;7.80;;;6.10;;
19621;SDS011;9958;33.196;-97.114;2023-07-24T13:34:08;8.00;;;6.78;;
19621;SDS011;9958;33.196;-97.114;2023-07-24T13:36:35;7.03;;;6.32;;
19621;SDS011;9958;33.196;-97.114;2023-07-24T13:39:03;8.63;;;6.65;;
19621;SDS011;9958;33.196;-97.114;2023-07-24T13:41:31;9.90;;;6.85;;
19621;SDS011;9958;33.196;-97.114;2023-07-24T13:44:00;8.45;;;6.55;;
19621;SDS011;9958;33.196;-97.114;2023-07-24T13:46:27;8.00;;;6.57;;
19621;SDS011;9958;33.196;-97.114;2023-07-24T13:48:55;7.25;;;6.18;;
19621;SDS011;9958;33.196;-97.114;2023-07-24T13:51:23;6.47;;;5.80;;
19621;SDS011;9958;33.196;-97.114;2023-07-24T13:53:50;7.03;;;6.05;;
19621;SDS011;9958;33.196;-97.114;2023-07-24T13:56:19;8.80;;;6.50;;
19621;SDS011;9958;33.196;-97.114;2023-07-24T13:58:48;7.38;;;5.88;;
19621;SDS011;9958;33.196;-97.114;2023-07-24T14:01:17;7.28;;;5.97;;
19621;SDS011;9958;33.196;-97.114;2023-07-24T14:03:44;9.32;;;6.70;;
19621;SDS011;9958;33.196;-97.114;2023-07-24T14:06:12;10.18;;;6.80;;
19621;SDS011;9958;33.196;-97.114;2023-07-24T14:08:40;7.80;;;6.18;;
19621;SDS011;9958;33.196;-97.114;2023-07-24T14:11:07;7.28;;;5.78;;
19621;SDS011;9958;33.196;-97.114;2023-07-24T14:13:35;9.00;;;6.20;;
19621;SDS011;9958;33.196;-97.114;2023-07-24T14:16:03;7.90;;;6.35;;
19621;SDS011;9958;33.196;-97.114;2023-07-24T14:18:31;7.10;;;6.30;;
19621;SDS011;9958;33.196;-97.114;2023-07-24T14:20:59;9.63;;;6.65;;
19621;SDS011;9958;33.196;-97.114;2023-07-24T14:23:27;9.60;;;6.57;;
19621;SDS011;9958;33.196;-97.114;2023-07-24T14:25:54;8.57;;;6.20;;
19621;SDS011;9958;33.196;-97.114;2023-07-24T14:28:22;6.80;;;5.90;;
19621;SDS011;9958;33.196;-97.114;2023-07-24T14:30:50;8.77;;;6.13;;
19621;SDS011;9958;33.196;-97.114;2023-07-24T14:33:19;10.13;;;6.28;;
19621;SDS011;9958;33.196;-97.114;2023-07-24T14:35:48;7.47;;;6.28;;
19621;SDS011;9958;33.196;-97.114;2023-07-24T14:38:16;7.80;;;6.30;;
19621;SDS011;9958;33.196;-97.114;2023-07-24T14:40:43;10.40;;;6.28;;
19621;SDS011;9958;33.196;-97.114;2023-07-24T14:43:11;7.03;;;5.38;;
19621;SDS011;9958;33.196;-97.114;2023-07-24T14:45:39;8.52;;;6.57;;